Time;durP1;ratioP1;P1;durP2;ratioP2;P2;SDS_P1;SDS_P2;PMS_P1;PMS_P2;Temp;Humidity;BMP_temperature;BMP_pressure;BME280_temperature;BME280_humidity;BME280_pressure;Samples;Min_cycle;Max_cycle;Signal;HPM_P1;HPM_P2
2023/06/08 00:01:08;;;;;;;;;;;;;;;;;;5057785;28;19939;-64
2023/06/08 00:03:34;;;;;;;;;;;;;;;;;;5066886;28;19913;-65
2023/06/08 00:06:00;;;;;;;;;;;;;;;;;;5067692;28;19919;-65
2023/06/08 00:08:26;;;;;;;;;;;;;;;;;;5059619;28;20368;-64
2023/06/08 00:10:51;;;;;;;;;;;;;;;;;;5063411;28;19970;-64
2023/06/08 00:13:17;;;;;;;;;;;;;;;;;;5063263;28;19952;-64
2023/06/08 00:15:43;;;;;;;;;;;;;;;;;;5051350;28;20035;-63
2023/06/08 00:18:09;;;;;;;;;;;;;;;;;;5065446;28;19977;-64
2023/06/08 00:20:35;;;;;;;;;;;;;;;;;;5052215;28;20257;-64
2023/06/08 00:23:03;;;;;;;;;;;;;;;;;;5068820;28;19965;-64
2023/06/08 00:25:29;;;;;;;;;;;;;;;;;;5068955;28;19927;-64
2023/06/08 00:27:55;;;;;;;;;;;;;;;;;;5055618;28;19912;-64
2023/06/08 00:30:21;;;;;;;;;;;;;;;;;;5067324;28;19978;-64
2023/06/08 00:32:47;;;;;;;;;;;;;;;;;;5057945;28;19923;-64
2023/06/08 00:35:13;;;;;;;;;;;;;;;;;;5061330;28;19916;-64
2023/06/08 00:37:39;;;;;;;;;;;;;;;;;;5061279;28;19948;-64
2023/06/08 00:40:05;;;;;;;;;;;;;;;;;;5055858;28;19962;-64
2023/06/08 00:42:31;;;;;;;;;;;;;;;;;;5061275;28;19920;-63
2023/06/08 00:44:57;;;;;;;;;;;;;;;;;;5063071;28;19913;-64
2023/06/08 00:47:23;;;;;;;;;;;;;;;;;;5066463;28;19913;-64
2023/06/08 00:49:49;;;;;;;;;;;;;;;;;;5064009;28;19963;-63
2023/06/08 00:52:15;;;;;;;;;;;;;;;;;;5066678;28;20333;-63
2023/06/08 00:54:43;;;;;;;;;;;;;;;;;;5063847;28;20002;-63
2023/06/08 00:57:09;;;;;;;;;;;;;;;;;;5068415;28;19912;-63
2023/06/08 00:59:35;;;;;;;;;;;;;;;;;;5068060;28;19983;-63
2023/06/08 01:02:04;;;;;;;;;;;;;;;;;;5067271;28;19936;-63
2023/06/08 01:04:31;;;;;;;;;;;;;;;;;;5064107;28;19923;-63
2023/06/08 01:06:58;;;;;;;;;;;;;;;;;;5075161;28;19909;-63
2023/06/08 01:09:24;;;;;;;;;;;;;;;;;;5055997;28;19921;-63
2023/06/08 01:11:50;;;;;;;;;;;;;;;;;;5066202;28;19924;-63
2023/06/08 01:14:16;;;;;;;;;;;;;;;;;;5074600;28;19956;-63
2023/06/08 01:16:44;;;;;;;;;;;;;;;;;;5066482;28;20426;-63
2023/06/08 01:19:11;;;;;;;;;;;;;;;;;;5043421;28;19916;-63
2023/06/08 01:21:37;;;;;;;;;;;;;;;;;;5065335;28;20309;-63
2023/06/08 01:24:03;;;;;;;;;;;;;;;;;;5054743;28;19955;-64
2023/06/08 01:26:31;;;;;;;;;;;;;;;;;;5062180;28;20015;-63
2023/06/08 01:28:57;;;;;;;;;;;;;;;;;;5055734;28;20338;-63
2023/06/08 01:31:23;;;;;;;;;;;;;;;;;;5061819;28;19955;-64
2023/06/08 01:33:48;;;;;;;;;;;;;;;;;;5065822;28;19919;-63
2023/06/08 01:36:14;;;;;;;;;;;;;;;;;;5054500;28;19913;-63
2023/06/08 01:38:40;;;;;;;;;;;;;;;;;;5053418;28;19964;-65
2023/06/08 01:41:06;;;;;;;;;;;;;;;;;;5058527;28;20482;-63
2023/06/08 01:43:32;;;;;;;;;;;;;;;;;;5058940;28;19967;-63
2023/06/08 01:45:58;;;;;;;;;;;;;;;;;;5070194;28;19940;-63
2023/06/08 01:48:24;;;;;;;;;;;;;;;;;;5064648;28;20322;-63
2023/06/08 01:50:50;;;;;;;;;;;;;;;;;;5073642;28;20023;-63
2023/06/08 01:53:16;;;;;;;;;;;;;;;;;;5056210;28;20364;-63
2023/06/08 01:55:42;;;;;;;;;;;;;;;;;;5071336;28;19959;-63
2023/06/08 01:58:07;;;;;;;;;;;;;;;;;;5063654;28;20075;-63
2023/06/08 02:00:33;;;;;;;;;;;;;;;;;;5071984;28;19912;-64
2023/06/08 02:02:59;;;;;;;;;;;;;;;;;;5054456;28;19913;-65
2023/06/08 02:05:25;;;;;;;;;;;;;;;;;;5070874;28;20054;-63
2023/06/08 02:07:51;;;;;;;;;;;;;;;;;;5057013;28;19916;-64
2023/06/08 02:10:17;;;;;;;;;;;;;;;;;;5071959;28;20261;-64
2023/06/08 02:12:43;;;;;;;;;;;;;;;;;;5061070;28;19921;-64
2023/06/08 02:15:09;;;;;;;;;;;;;;;;;;5062602;28;19963;-63
2023/06/08 02:17:35;;;;;;;;;;;;;;;;;;5060918;28;19916;-64
2023/06/08 02:20:05;;;;;;;;;;;;;;;;;;5053525;28;20357;-63
2023/06/08 02:22:31;;;;;;;;;;;;;;;;;;5068095;28;19924;-64
2023/06/08 02:24:57;;;;;;;;;;;;;;;;;;5073168;28;19909;-64
2023/06/08 02:27:23;;;;;;;;;;;;;;;;;;5061619;28;20291;-64
2023/06/08 02:29:49;;;;;;;;;;;;;;;;;;5058210;28;19961;-63
2023/06/08 02:32:15;;;;;;;;;;;;;;;;;;5062400;28;19924;-63
2023/06/08 02:34:41;;;;;;;;;;;;;;;;;;5056406;28;19948;-63
2023/06/08 02:37:07;;;;;;;;;;;;;;;;;;5056748;28;19915;-63
2023/06/08 02:39:33;;;;;;;;;;;;;;;;;;5062492;28;19916;-63
2023/06/08 02:41:59;;;;;;;;;;;;;;;;;;5055472;28;19909;-63
2023/06/08 02:44:25;;;;;;;;;;;;;;;;;;5057477;28;19920;-63
2023/06/08 02:46:51;;;;;;;;;;;;;;;;;;5070870;28;19947;-64
2023/06/08 02:49:17;;;;;;;;;;;;;;;;;;5060224;28;19956;-64
2023/06/08 02:51:43;;;;;;;;;;;;;;;;;;5065806;28;20011;-64
2023/06/08 02:54:08;;;;;;;;;;;;;;;;;;5072029;28;19914;-64
2023/06/08 02:56:35;;;;;;;;;;;;;;;;;;5062209;28;20376;-64
2023/06/08 02:59:02;;;;;;;;;;;;;;;;;;5066379;28;19950;-64
2023/06/08 03:01:30;;;;;;;;;;;;;;;;;;5054224;28;19931;-63
2023/06/08 03:03:56;;;;;;;;;;;;;;;;;;5051182;28;19913;-63
2023/06/08 03:06:22;;;;;;;;;;;;;;;;;;5053232;28;19920;-64
2023/06/08 03:08:48;;;;;;;;;;;;;;;;;;5059902;28;20265;-64
2023/06/08 03:11:14;;;;;;;;;;;;;;;;;;5070416;28;20406;-64
2023/06/08 03:13:40;;;;;;;;;;;;;;;;;;5067541;28;19909;-63
2023/06/08 03:16:06;;;;;;;;;;;;;;;;;;5051827;28;19970;-65
2023/06/08 03:18:34;;;;;;;;;;;;;;;;;;5052353;28;20428;-65
2023/06/08 03:21:01;;;;;;;;;;;;;;;;;;5063680;28;20364;-64
2023/06/08 03:23:28;;;;;;;;;;;;;;;;;;5054937;28;19969;-65
2023/06/08 03:25:54;;;;;;;;;;;;;;;;;;5055296;28;20054;-65
2023/06/08 03:28:20;;;;;;;;;;;;;;;;;;5052050;28;20011;-64
2023/06/08 03:30:46;;;;;;;;;;;;;;;;;;5061967;28;19935;-64
2023/06/08 03:33:13;;;;;;;;;;;;;;;;;;5065233;28;19923;-65
2023/06/08 03:35:39;;;;;;;;;;;;;;;;;;5054753;28;19913;-64
2023/06/08 03:38:05;;;;;;;;;;;;;;;;;;5055539;28;19913;-64
2023/06/08 03:40:31;;;;;;;;;;;;;;;;;;5052894;28;19951;-65
2023/06/08 03:42:56;;;;;;;;;;;;;;;;;;5052409;28;19913;-63
2023/06/08 03:45:22;;;;;;;;;;;;;;;;;;5051466;28;20015;-64
2023/06/08 03:47:48;;;;;;;;;;;;;;;;;;5051450;28;19912;-64
2023/06/08 03:50:14;;;;;;;;;;;;;;;;;;5053818;28;19924;-64
2023/06/08 03:52:40;;;;;;;;;;;;;;;;;;5069296;28;19916;-64
2023/06/08 03:55:06;;;;;;;;;;;;;;;;;;5063690;28;20013;-59
2023/06/08 03:57:32;;;;;;;;;;;;;;;;;;5064339;28;19912;-59
2023/06/08 03:59:58;;;;;;;;;;;;;;;;;;5063360;28;19992;-59
2023/06/08 04:02:24;;;;;;;;;;;;;;;;;;5050159;28;19920;-59
2023/06/08 04:04:50;;;;;;;;;;;;;;;;;;5058159;28;19947;-60
2023/06/08 04:07:16;;;;;;;;;;;;;;;;;;5066255;28;20027;-59
2023/06/08 04:09:42;;;;;;;;;;;;;;;;;;5064632;28;19923;-59
2023/06/08 04:12:08;;;;;;;;;;;;;;;;;;5071004;28;19959;-59
2023/06/08 04:14:34;;;;;;;;;;;;;;;;;;5059912;28;19960;-60
2023/06/08 04:17:00;;;;;;;;;;;;;;;;;;5072824;28;19959;-60
2023/06/08 04:19:26;;;;;;;;;;;;;;;;;;5055149;28;19940;-60
2023/06/08 04:21:56;;;;;;;;;;;;;;;;;;5063063;28;19916;-59
2023/06/08 04:24:22;;;;;;;;;;;;;;;;;;5061970;28;19952;-59
2023/06/08 04:26:48;;;;;;;;;;;;;;;;;;5067157;28;20012;-59
2023/06/08 04:29:14;;;;;;;;;;;;;;;;;;5074260;28;19999;-59
2023/06/08 04:31:40;;;;;;;;;;;;;;;;;;5055325;28;19977;-60
2023/06/08 04:34:06;;;;;;;;;;;;;;;;;;5070992;28;19916;-59
2023/06/08 04:36:34;;;;;;;;;;;;;;;;;;5073357;28;20357;-59
2023/06/08 04:39:00;;;;;;;;;;;;;;;;;;5068041;28;19913;-59
2023/06/08 04:41:28;;;;;;;;;;;;;;;;;;5065362;28;19912;-60
2023/06/08 04:43:54;;;;;;;;;;;;;;;;;;5069764;28;19916;-59
2023/06/08 04:46:25;;;;;;;;;;;;;;;;;;5064828;28;20333;-59
2023/06/08 04:48:51;;;;;;;;;;;;;;;;;;5061257;28;19916;-59
2023/06/08 04:51:17;;;;;;;;;;;;;;;;;;5061362;28;19959;-59
2023/06/08 04:53:43;;;;;;;;;;;;;;;;;;5063129;28;19921;-59
2023/06/08 04:56:13;;;;;;;;;;;;;;;;;;5065565;28;19912;-59
2023/06/08 04:58:39;;;;;;;;;;;;;;;;;;5063835;28;19912;-59
2023/06/08 05:01:05;;;;;;;;;;;;;;;;;;5057955;28;19927;-60
2023/06/08 05:03:31;;;;;;;;;;;;;;;;;;5062405;28;19913;-60
2023/06/08 05:05:56;;;;;;;;;;;;;;;;;;5055104;28;20387;-60
2023/06/08 05:08:22;;;;;;;;;;;;;;;;;;5064006;28;19995;-60
2023/06/08 05:10:48;;;;;;;;;;;;;;;;;;5067876;28;19912;-60
2023/06/08 05:13:14;;;;;;;;;;;;;;;;;;5068797;28;19954;-60
2023/06/08 05:15:40;;;;;;;;;;;;;;;;;;5062296;28;20353;-60
2023/06/08 05:18:06;;;;;;;;;;;;;;;;;;5057485;28;19944;-60
2023/06/08 05:20:32;;;;;;;;;;;;;;;;;;5060779;28;19919;-60
2023/06/08 05:22:58;;;;;;;;;;;;;;;;;;5068230;28;19912;-60
2023/06/08 05:25:26;;;;;;;;;;;;;;;;;;5072321;28;19916;-60
2023/06/08 05:27:52;;;;;;;;;;;;;;;;;;5071136;28;20361;-60
2023/06/08 05:30:18;;;;;;;;;;;;;;;;;;5066619;28;19958;-60
2023/06/08 05:32:44;;;;;;;;;;;;;;;;;;5073507;28;20011;-60
2023/06/08 05:35:10;;;;;;;;;;;;;;;;;;5054112;28;20381;-60
2023/06/08 05:37:36;;;;;;;;;;;;;;;;;;5056229;28;19960;-60
2023/06/08 05:40:02;;;;;;;;;;;;;;;;;;5069405;28;19947;-60
2023/06/08 05:42:28;;;;;;;;;;;;;;;;;;5064531;28;19971;-60
2023/06/08 05:44:54;;;;;;;;;;;;;;;;;;5055127;28;19956;-60
2023/06/08 05:47:20;;;;;;;;;;;;;;;;;;5073435;28;19962;-60
2023/06/08 05:49:46;;;;;;;;;;;;;;;;;;5069236;28;20352;-60
2023/06/08 05:52:12;;;;;;;;;;;;;;;;;;5057781;28;19960;-60
2023/06/08 05:54:38;;;;;;;;;;;;;;;;;;5069234;28;19962;-60
2023/06/08 05:57:05;;;;;;;;;;;;;;;;;;5055863;28;19955;-60
2023/06/08 05:59:31;;;;;;;;;;;;;;;;;;5053866;28;19913;-60
2023/06/08 06:01:57;;;;;;;;;;;;;;;;;;5059953;28;20023;-60
2023/06/08 06:04:22;;;;;;;;;;;;;;;;;;5073292;28;20365;-60
2023/06/08 06:06:48;;;;;;;;;;;;;;;;;;5059293;28;19955;-59
2023/06/08 06:09:14;;;;;;;;;;;;;;;;;;5056207;28;19923;-59
2023/06/08 06:11:40;;;;;;;;;;;;;;;;;;5066050;28;19913;-59
2023/06/08 06:14:06;;;;;;;;;;;;;;;;;;5052718;28;19932;-59
2023/06/08 06:16:32;;;;;;;;;;;;;;;;;;5063302;28;19951;-59
2023/06/08 06:18:58;;;;;;;;;;;;;;;;;;5053975;28;19919;-60
2023/06/08 06:21:24;;;;;;;;;;;;;;;;;;5056650;28;20369;-60
2023/06/08 06:23:50;;;;;;;;;;;;;;;;;;5055392;28;19927;-59
2023/06/08 06:26:16;;;;;;;;;;;;;;;;;;5051128;28;19940;-60
2023/06/08 06:28:41;;;;;;;;;;;;;;;;;;5069241;28;19957;-60
2023/06/08 06:31:07;;;;;;;;;;;;;;;;;;5074706;28;19968;-60
2023/06/08 06:33:33;;;;;;;;;;;;;;;;;;5065591;28;20360;-60
2023/06/08 06:35:59;;;;;;;;;;;;;;;;;;5068326;28;19923;-60
2023/06/08 06:38:25;;;;;;;;;;;;;;;;;;5070914;28;19959;-60
2023/06/08 06:40:52;;;;;;;;;;;;;;;;;;5067766;28;19998;-60
2023/06/08 06:43:18;;;;;;;;;;;;;;;;;;5057725;28;20402;-60
2023/06/08 06:45:44;;;;;;;;;;;;;;;;;;5056932;28;19951;-60
2023/06/08 06:48:10;;;;;;;;;;;;;;;;;;5059470;28;19916;-60
2023/06/08 06:50:36;;;;;;;;;;;;;;;;;;5062908;28;19962;-60
2023/06/08 06:53:02;;;;;;;;;;;;;;;;;;5059641;28;20283;-60
2023/06/08 06:55:28;;;;;;;;;;;;;;;;;;5052432;28;19971;-60
2023/06/08 06:57:54;;;;;;;;;;;;;;;;;;5071716;28;21181;-60
2023/06/08 07:00:22;;;;;;;;;;;;;;;;;;5057206;28;20000;-60
2023/06/08 07:02:48;;;;;;;;;;;;;;;;;;5065465;28;19970;-60
2023/06/08 07:05:14;;;;;;;;;;;;;;;;;;5060940;28;20261;-60
2023/06/08 07:07:40;;;;;;;;;;;;;;;;;;5068991;28;19963;-60
2023/06/08 07:10:06;;;;;;;;;;;;;;;;;;5065859;28;19960;-60
2023/06/08 07:12:32;;;;;;;;;;;;;;;;;;5067291;28;19960;-60
2023/06/08 07:14:58;;;;;;;;;;;;;;;;;;5067064;28;19978;-60
2023/06/08 07:17:24;;;;;;;;;;;;;;;;;;5064771;28;20008;-60
2023/06/08 07:19:52;;;;;;;;;;;;;;;;;;5069513;28;21532;-60
2023/06/08 07:22:18;;;;;;;;;;;;;;;;;;5067242;28;19912;-60
2023/06/08 07:24:44;;;;;;;;;;;;;;;;;;5063716;28;19966;-60
2023/06/08 07:27:10;;;;;;;;;;;;;;;;;;5069972;28;20305;-60
2023/06/08 07:29:36;;;;;;;;;;;;;;;;;;5063239;28;19966;-61
2023/06/08 07:32:02;;;;;;;;;;;;;;;;;;5068752;28;20361;-61
2023/06/08 07:34:28;;;;;;;;;;;;;;;;;;5065851;28;20276;-61
2023/06/08 07:36:54;;;;;;;;;;;;;;;;;;5069239;28;19954;-60
2023/06/08 07:39:20;;;;;;;;;;;;;;;;;;5064678;28;19998;-60
2023/06/08 07:41:46;;;;;;;;;;;;;;;;;;5070193;28;20325;-61
2023/06/08 07:44:12;;;;;;;;;;;;;;;;;;5066853;28;19919;-61
2023/06/08 07:46:38;;;;;;;;;;;;;;;;;;5056336;28;19913;-61
2023/06/08 07:49:03;;;;;;;;;;;;;;;;;;5059639;28;20406;-60
2023/06/08 07:51:29;;;;;;;;;;;;;;;;;;5050923;28;19939;-61
2023/06/08 07:53:56;;;;;;;;;;;;;;;;;;5061668;28;19924;-61
2023/06/08 07:56:21;;;;;;;;;;;;;;;;;;5060185;28;20388;-60
2023/06/08 07:58:48;;;;;;;;;;;;;;;;;;5071194;28;19938;-61
2023/06/08 08:01:15;;;;;;;;;;;;;;;;;;5071090;28;19954;-61
2023/06/08 08:03:40;;;;;;;;;;;;;;;;;;5053182;28;20000;-61
2023/06/08 08:06:06;;;;;;;;;;;;;;;;;;5033369;28;20038;-61
2023/06/08 08:08:32;;;;;;;;;;;;;;;;;;5052044;28;19916;-58
2023/06/08 08:10:58;;;;;;;;;;;;;;;;;;5059826;28;19961;-58
2023/06/08 08:13:24;;;;;;;;;;;;;;;;;;5060660;28;19963;-59
2023/06/08 08:15:50;;;;;;;;;;;;;;;;;;5058845;28;19952;-59
2023/06/08 08:18:16;;;;;;;;;;;;;;;;;;5071039;28;19908;-59
2023/06/08 08:20:42;;;;;;;;;;;;;;;;;;5059563;28;19919;-59
2023/06/08 08:23:08;;;;;;;;;;;;;;;;;;5070371;28;20003;-59
2023/06/08 08:25:35;;;;;;;;;;;;;;;;;;5069896;28;19920;-59
2023/06/08 08:28:00;;;;;;;;;;;;;;;;;;5063716;28;20034;-59
2023/06/08 08:30:27;;;;;;;;;;;;;;;;;;5070137;28;20322;-59
2023/06/08 08:32:52;;;;;;;;;;;;;;;;;;5060374;28;19921;-59
2023/06/08 08:35:19;;;;;;;;;;;;;;;;;;5056777;28;19998;-59
2023/06/08 08:37:45;;;;;;;;;;;;;;;;;;5070600;28;20403;-59
2023/06/08 08:40:11;;;;;;;;;;;;;;;;;;5070380;28;19962;-59
2023/06/08 08:42:37;;;;;;;;;;;;;;;;;;5070506;28;19991;-59
2023/06/08 08:45:03;;;;;;;;;;;;;;;;;;5067917;28;20364;-59
2023/06/08 08:47:29;;;;;;;;;;;;;;;;;;5068070;28;19962;-59
2023/06/08 08:49:55;;;;;;;;;;;;;;;;;;5070429;28;20390;-59
2023/06/08 08:52:23;;;;;;;;;;;;;;;;;;5068552;28;19912;-60
2023/06/08 08:54:55;;;;;;;;;;;;;;;;;;5064159;28;19943;-59
2023/06/08 08:57:21;;;;;;;;;;;;;;;;;;5065113;28;20318;-59
2023/06/08 08:59:47;;;;;;;;;;;;;;;;;;5071253;28;19988;-59
2023/06/08 09:02:13;;;;;;;;;;;;;;;;;;5068346;28;19986;-59
2023/06/08 09:04:39;;;;;;;;;;;;;;;;;;5056767;28;19948;-59
2023/06/08 09:07:05;;;;;;;;;;;;;;;;;;5070377;28;19916;-59
2023/06/08 09:09:31;;;;;;;;;;;;;;;;;;5074119;28;19913;-59
2023/06/08 09:11:58;;;;;;;;;;;;;;;;;;5060851;28;19923;-59
2023/06/08 09:14:24;;;;;;;;;;;;;;;;;;5074126;28;19949;-60
2023/06/08 09:16:50;;;;;;;;;;;;;;;;;;5074237;28;19913;-59
2023/06/08 09:19:16;;;;;;;;;;;;;;;;;;5055790;28;20360;-59
2023/06/08 09:21:43;;;;;;;;;;;;;;;;;;5073263;28;19958;-59
2023/06/08 09:24:11;;;;;;;;;;;;;;;;;;5059927;28;19920;-59
2023/06/08 09:26:37;;;;;;;;;;;;;;;;;;5073859;28;20430;-59
2023/06/08 09:29:03;;;;;;;;;;;;;;;;;;5063926;28;19995;-59
2023/06/08 09:31:29;;;;;;;;;;;;;;;;;;5072890;28;20011;-59
2023/06/08 09:33:56;;;;;;;;;;;;;;;;;;5073175;28;20323;-59
2023/06/08 09:36:23;;;;;;;;;;;;;;;;;;5064250;28;20384;-59
2023/06/08 09:38:49;;;;;;;;;;;;;;;;;;5073546;28;19919;-58
2023/06/08 09:41:15;;;;;;;;;;;;;;;;;;5073329;28;19948;-59
2023/06/08 09:43:41;;;;;;;;;;;;;;;;;;5061370;28;19913;-59
2023/06/08 09:46:11;;;;;;;;;;;;;;;;;;5072091;28;19920;-59
2023/06/08 09:48:37;;;;;;;;;;;;;;;;;;5072531;28;19923;-59
2023/06/08 09:51:03;;;;;;;;;;;;;;;;;;5070689;28;19908;-59
2023/06/08 09:53:29;;;;;;;;;;;;;;;;;;5063941;28;20384;-59
2023/06/08 09:55:55;;;;;;;;;;;;;;;;;;5067700;28;19948;-59
2023/06/08 09:58:21;;;;;;;;;;;;;;;;;;5059608;28;19928;-59
2023/06/08 10:00:47;;;;;;;;;;;;;;;;;;5072855;28;19909;-58
2023/06/08 10:03:14;;;;;;;;;;;;;;;;;;5061048;28;20409;-59
2023/06/08 10:05:40;;;;;;;;;;;;;;;;;;5059270;28;19920;-59
2023/06/08 10:08:06;;;;;;;;;;;;;;;;;;5056819;28;19966;-59
2023/06/08 10:10:32;;;;;;;;;;;;;;;;;;5066861;28;20373;-59
2023/06/08 10:12:58;;;;;;;;;;;;;;;;;;5056924;28;19919;-60
2023/06/08 10:15:24;;;;;;;;;;;;;;;;;;5072827;28;20007;-58
2023/06/08 10:17:50;;;;;;;;;;;;;;;;;;5060917;28;19917;-59
2023/06/08 10:20:16;;;;;;;;;;;;;;;;;;5066777;28;19962;-60
2023/06/08 10:22:42;;;;;;;;;;;;;;;;;;5065916;28;20322;-59
2023/06/08 10:25:08;;;;;;;;;;;;;;;;;;5068337;28;19951;-59
2023/06/08 10:27:34;;;;;;;;;;;;;;;;;;5060804;28;19939;-59
2023/06/08 10:30:00;;;;;;;;;;;;;;;;;;5059927;28;20241;-60
2023/06/08 10:32:26;;;;;;;;;;;;;;;;;;5067533;28;20012;-59
2023/06/08 10:34:52;;;;;;;;;;;;;;;;;;5063302;28;19952;-60
2023/06/08 10:37:18;;;;;;;;;;;;;;;;;;5071163;28;19916;-60
2023/06/08 10:39:44;;;;;;;;;;;;;;;;;;5069311;28;19919;-60
2023/06/08 10:42:11;;;;;;;;;;;;;;;;;;5071322;28;20268;-59
2023/06/08 10:44:39;;;;;;;;;;;;;;;;;;5068100;28;19947;-59
2023/06/08 10:47:05;;;;;;;;;;;;;;;;;;5047941;28;19913;-60
2023/06/08 10:49:31;;;;;;;;;;;;;;;;;;5068468;28;20265;-59
2023/06/08 10:51:57;;;;;;;;;;;;;;;;;;5070279;28;19912;-60
2023/06/08 10:54:23;;;;;;;;;;;;;;;;;;5067412;28;19919;-60
2023/06/08 10:56:52;;;;;;;;;;;;;;;;;;5065381;28;20304;-59
2023/06/08 10:59:18;;;;;;;;;;;;;;;;;;5061152;28;20356;-59
2023/06/08 11:01:44;;;;;;;;;;;;;;;;;;5063261;28;19959;-67
2023/06/08 11:04:10;;;;;;;;;;;;;;;;;;5062898;28;19919;-66
2023/06/08 11:06:38;;;;;;;;;;;;;;;;;;5069706;28;19920;-66
2023/06/08 11:09:04;;;;;;;;;;;;;;;;;;5071579;28;20377;-66
2023/06/08 11:11:30;;;;;;;;;;;;;;;;;;5067983;28;20023;-66
2023/06/08 11:13:56;;;;;;;;;;;;;;;;;;5070354;28;19975;-66
2023/06/08 11:16:22;;;;;;;;;;;;;;;;;;5070281;28;19959;-66
2023/06/08 11:18:48;;;;;;;;;;;;;;;;;;5070468;28;19908;-66
2023/06/08 11:21:14;;;;;;;;;;;;;;;;;;5069049;28;20387;-66
2023/06/08 11:23:40;;;;;;;;;;;;;;;;;;5052157;28;19908;-68
2023/06/08 11:26:05;;;;;;;;;;;;;;;;;;5071842;28;20385;-66
2023/06/08 11:28:31;;;;;;;;;;;;;;;;;;5068586;28;19955;-67
2023/06/08 11:30:59;;;;;;;;;;;;;;;;;;5058934;28;19919;-67
2023/06/08 11:33:25;;;;;;;;;;;;;;;;;;5057031;28;19950;-66
2023/06/08 11:35:51;;;;;;;;;;;;;;;;;;5061418;28;20440;-67
2023/06/08 11:38:17;;;;;;;;;;;;;;;;;;5055104;28;19978;-67
2023/06/08 11:40:43;;;;;;;;;;;;;;;;;;5068119;28;20349;-67
2023/06/08 11:43:09;;;;;;;;;;;;;;;;;;5071612;28;19951;-67
2023/06/08 11:45:36;;;;;;;;;;;;;;;;;;5071488;28;19999;-67
2023/06/08 11:48:02;;;;;;;;;;;;;;;;;;5064280;28;19920;-66
2023/06/08 11:50:28;;;;;;;;;;;;;;;;;;5063103;28;20403;-66
2023/06/08 11:52:54;;;;;;;;;;;;;;;;;;5053110;28;19960;-67
2023/06/08 11:55:22;;;;;;;;;;;;;;;;;;5069446;28;20007;-66
2023/06/08 11:57:49;;;;;;;;;;;;;;;;;;5071533;28;19999;-67
2023/06/08 12:00:15;;;;;;;;;;;;;;;;;;5069196;28;19940;-66
2023/06/08 12:02:41;;;;;;;;;;;;;;;;;;5064293;28;19952;-66
2023/06/08 12:05:07;;;;;;;;;;;;;;;;;;5065221;28;19955;-65
2023/06/08 12:07:33;;;;;;;;;;;;;;;;;;5060910;28;19916;-66
2023/06/08 12:10:00;;;;;;;;;;;;;;;;;;5069546;28;19916;-65
2023/06/08 12:12:26;;;;;;;;;;;;;;;;;;5070771;28;19924;-65
2023/06/08 12:14:52;;;;;;;;;;;;;;;;;;5069378;28;19924;-66
2023/06/08 12:17:18;;;;;;;;;;;;;;;;;;5060172;28;19916;-66
2023/06/08 12:19:44;;;;;;;;;;;;;;;;;;5050561;28;19909;-66
2023/06/08 12:22:10;;;;;;;;;;;;;;;;;;5058305;28;20348;-66
2023/06/08 12:24:37;;;;;;;;;;;;;;;;;;5070550;28;19935;-66
2023/06/08 12:27:03;;;;;;;;;;;;;;;;;;5070882;28;19913;-66
2023/06/08 12:29:29;;;;;;;;;;;;;;;;;;5064088;28;19961;-66
2023/06/08 12:31:55;;;;;;;;;;;;;;;;;;5056804;28;19921;-66
2023/06/08 12:34:21;;;;;;;;;;;;;;;;;;5056937;28;19913;-66
2023/06/08 12:36:47;;;;;;;;;;;;;;;;;;5061584;28;19917;-66
2023/06/08 12:39:14;;;;;;;;;;;;;;;;;;5056619;28;19962;-66
2023/06/08 12:41:39;;;;;;;;;;;;;;;;;;5062577;28;19912;-66
2023/06/08 12:44:05;;;;;;;;;;;;;;;;;;5055953;28;19943;-67
2023/06/08 12:46:31;;;;;;;;;;;;;;;;;;5057956;28;20368;-67
2023/06/08 12:48:58;;;;;;;;;;;;;;;;;;5074106;28;19919;-66
2023/06/08 12:51:24;;;;;;;;;;;;;;;;;;5064959;28;19921;-66
2023/06/08 12:53:50;;;;;;;;;;;;;;;;;;5054666;28;19974;-66
2023/06/08 12:56:17;;;;;;;;;;;;;;;;;;5057846;28;19916;-66
2023/06/08 12:58:43;;;;;;;;;;;;;;;;;;5061444;28;19916;-66
2023/06/08 13:01:09;;;;;;;;;;;;;;;;;;5065451;28;19979;-67
2023/06/08 13:03:35;;;;;;;;;;;;;;;;;;5068660;28;20331;-66
2023/06/08 13:06:01;;;;;;;;;;;;;;;;;;5072190;28;19909;-67
2023/06/08 13:08:27;;;;;;;;;;;;;;;;;;5069976;28;19946;-67
2023/06/08 13:10:53;;;;;;;;;;;;;;;;;;5060867;28;19916;-66
2023/06/08 13:13:19;;;;;;;;;;;;;;;;;;5040875;28;20087;-66
2023/06/08 13:15:47;;;;;;;;;;;;;;;;;;5073454;28;20438;-67
2023/06/08 13:18:13;;;;;;;;;;;;;;;;;;5069124;28;20330;-67
2023/06/08 13:20:38;;;;;;;;;;;;;;;;;;5060744;28;19974;-66
2023/06/08 13:23:04;;;;;;;;;;;;;;;;;;5064926;28;19990;-67
2023/06/08 13:25:31;;;;;;;;;;;;;;;;;;5060899;28;19916;-66
2023/06/08 13:27:56;;;;;;;;;;;;;;;;;;5057180;28;19917;-67
2023/06/08 13:30:22;;;;;;;;;;;;;;;;;;5059913;28;20347;-66
2023/06/08 13:32:48;;;;;;;;;;;;;;;;;;5064136;28;20008;-66
2023/06/08 13:35:14;;;;;;;;;;;;;;;;;;5061915;28;19917;-66
2023/06/08 13:37:40;;;;;;;;;;;;;;;;;;5065023;28;19935;-66
2023/06/08 13:40:07;;;;;;;;;;;;;;;;;;5060609;28;19921;-66
2023/06/08 13:42:33;;;;;;;;;;;;;;;;;;5065867;28;19920;-66
2023/06/08 13:44:58;;;;;;;;;;;;;;;;;;5064476;28;19956;-66
2023/06/08 13:47:24;;;;;;;;;;;;;;;;;;5056327;28;19952;-66
2023/06/08 13:49:50;;;;;;;;;;;;;;;;;;5057798;28;20006;-66
2023/06/08 13:52:16;;;;;;;;;;;;;;;;;;5054376;28;20361;-66
2023/06/08 13:54:42;;;;;;;;;;;;;;;;;;5063772;28;19927;-67
2023/06/08 13:57:08;;;;;;;;;;;;;;;;;;5066058;28;19912;-66
2023/06/08 13:59:34;;;;;;;;;;;;;;;;;;5058171;28;20011;-66
2023/06/08 14:02:00;;;;;;;;;;;;;;;;;;5062004;28;19920;-67
2023/06/08 14:04:26;;;;;;;;;;;;;;;;;;5070069;28;19924;-66
2023/06/08 14:06:52;;;;;;;;;;;;;;;;;;5063616;28;19962;-66
2023/06/08 14:09:17;;;;;;;;;;;;;;;;;;5066591;28;19999;-67
2023/06/08 14:11:44;;;;;;;;;;;;;;;;;;5061136;28;19960;-66
2023/06/08 14:14:10;;;;;;;;;;;;;;;;;;5060916;28;19960;-67
2023/06/08 14:16:36;;;;;;;;;;;;;;;;;;5067548;28;19967;-66
2023/06/08 14:19:02;;;;;;;;;;;;;;;;;;5065545;28;20012;-66
2023/06/08 14:21:28;;;;;;;;;;;;;;;;;;5063402;28;19987;-66
2023/06/08 14:23:54;;;;;;;;;;;;;;;;;;5061400;28;19956;-66
2023/06/08 14:26:20;;;;;;;;;;;;;;;;;;5068361;28;20003;-66
2023/06/08 14:28:45;;;;;;;;;;;;;;;;;;5066930;28;20087;-67
2023/06/08 14:31:12;;;;;;;;;;;;;;;;;;5059615;28;19958;-66
2023/06/08 14:33:38;;;;;;;;;;;;;;;;;;5062582;28;19965;-66
2023/06/08 14:36:03;;;;;;;;;;;;;;;;;;5067056;28;19912;-67
2023/06/08 14:38:29;;;;;;;;;;;;;;;;;;5051127;28;19966;-66
2023/06/08 14:40:55;;;;;;;;;;;;;;;;;;5061412;28;19951;-67
2023/06/08 14:43:21;;;;;;;;;;;;;;;;;;5057924;28;20287;-66
2023/06/08 14:45:48;;;;;;;;;;;;;;;;;;5065762;28;19991;-66
2023/06/08 14:48:14;;;;;;;;;;;;;;;;;;5058898;28;20348;-67
2023/06/08 14:50:40;;;;;;;;;;;;;;;;;;5067551;28;19939;-67
2023/06/08 14:53:06;;;;;;;;;;;;;;;;;;5063782;28;20027;-65
2023/06/08 14:55:32;;;;;;;;;;;;;;;;;;5063846;28;19916;-66
2023/06/08 14:57:58;;;;;;;;;;;;;;;;;;5065336;28;19974;-67
2023/06/08 15:00:24;;;;;;;;;;;;;;;;;;5066075;28;19920;-66
2023/06/08 15:02:50;;;;;;;;;;;;;;;;;;5067297;28;20426;-66
2023/06/08 15:05:16;;;;;;;;;;;;;;;;;;5058126;28;20380;-66
2023/06/08 15:07:42;;;;;;;;;;;;;;;;;;5059136;28;19912;-65
2023/06/08 15:10:08;;;;;;;;;;;;;;;;;;5057465;28;20269;-66
2023/06/08 15:12:34;;;;;;;;;;;;;;;;;;5056120;28;19957;-66
2023/06/08 15:15:00;;;;;;;;;;;;;;;;;;5052700;28;19967;-66
2023/06/08 15:17:26;;;;;;;;;;;;;;;;;;5071762;28;19932;-66
2023/06/08 15:19:52;;;;;;;;;;;;;;;;;;5062866;28;20350;-67
2023/06/08 15:22:17;;;;;;;;;;;;;;;;;;5065129;28;19935;-66
2023/06/08 15:24:43;;;;;;;;;;;;;;;;;;5075782;28;19920;-66
2023/06/08 15:27:09;;;;;;;;;;;;;;;;;;5058263;28;19959;-66
2023/06/08 15:29:35;;;;;;;;;;;;;;;;;;5053267;28;19970;-66
2023/06/08 15:32:01;;;;;;;;;;;;;;;;;;5058347;28;19967;-66
2023/06/08 15:34:27;;;;;;;;;;;;;;;;;;5054400;28;19912;-65
2023/06/08 15:36:53;;;;;;;;;;;;;;;;;;5065572;28;19966;-65
2023/06/08 15:39:19;;;;;;;;;;;;;;;;;;5064460;28;19952;-65
2023/06/08 15:41:45;;;;;;;;;;;;;;;;;;5069184;28;20443;-66
2023/06/08 15:44:11;;;;;;;;;;;;;;;;;;5062814;28;19956;-66
2023/06/08 15:46:36;;;;;;;;;;;;;;;;;;5056572;28;19923;-66
2023/06/08 15:49:02;;;;;;;;;;;;;;;;;;5050735;28;19959;-67
2023/06/08 15:51:28;;;;;;;;;;;;;;;;;;5041259;28;20400;-66
2023/06/08 15:53:54;;;;;;;;;;;;;;;;;;5062804;28;19912;-67
2023/06/08 15:56:20;;;;;;;;;;;;;;;;;;5052088;28;19955;-67
2023/06/08 15:58:46;;;;;;;;;;;;;;;;;;5059013;28;19938;-66
2023/06/08 16:01:12;;;;;;;;;;;;;;;;;;5057100;28;19919;-66
2023/06/08 16:03:40;;;;;;;;;;;;;;;;;;5066385;28;19919;-66
2023/06/08 16:06:06;;;;;;;;;;;;;;;;;;5069327;28;20341;-66
2023/06/08 16:08:32;;;;;;;;;;;;;;;;;;5058420;28;20011;-65
2023/06/08 16:10:58;;;;;;;;;;;;;;;;;;5063149;28;20020;-65
2023/06/08 16:13:24;;;;;;;;;;;;;;;;;;5073245;28;20356;-66
2023/06/08 16:15:50;;;;;;;;;;;;;;;;;;5071876;28;20003;-66
2023/06/08 16:18:16;;;;;;;;;;;;;;;;;;5068807;28;20434;-66
2023/06/08 16:20:42;;;;;;;;;;;;;;;;;;5059361;28;19952;-66
2023/06/08 16:23:08;;;;;;;;;;;;;;;;;;5064406;28;19975;-65
2023/06/08 16:25:34;;;;;;;;;;;;;;;;;;5064470;28;19961;-65
2023/06/08 16:27:59;;;;;;;;;;;;;;;;;;5063887;28;19917;-65
2023/06/08 16:30:26;;;;;;;;;;;;;;;;;;5069174;28;20372;-66
2023/06/08 16:32:52;;;;;;;;;;;;;;;;;;5062574;28;19920;-66
2023/06/08 16:35:18;;;;;;;;;;;;;;;;;;5059561;28;19921;-67
2023/06/08 16:37:44;;;;;;;;;;;;;;;;;;5059188;28;19919;-67